Time;durP1;ratioP1;P1;durP2;ratioP2;P2;SDS_P1;SDS_P2;PMS_P1;PMS_P2;Temp;Humidity;BMP_temperature;BMP_pressure;BME280_temperature;BME280_humidity;BME280_pressure;Samples;Min_cycle;Max_cycle;Signal;HPM_P1;HPM_P2
2023/07/02 00:00:27;;;;;;;0.40;0.40;;;15.90;99.90;;;;;;5135111;28;20468;-75
2023/07/02 00:02:52;;;;;;;0.40;0.40;;;15.90;99.90;;;;;;5135081;28;20474;-75
2023/07/02 00:05:18;;;;;;;1.37;1.27;;;15.90;99.90;;;;;;5134493;28;20055;-75
2023/07/02 00:07:44;;;;;;;0.37;0.37;;;15.80;99.90;;;;;;5134769;28;20036;-75
2023/07/02 00:10:10;;;;;;;0.40;0.40;;;15.80;99.90;;;;;;5134797;28;20051;-74
2023/07/02 00:12:36;;;;;;;0.47;0.47;;;15.80;99.90;;;;;;5134526;28;20454;-74
2023/07/02 00:15:02;;;;;;;0.40;0.40;;;15.80;99.90;;;;;;5134703;28;20075;-74
2023/07/02 00:17:28;;;;;;;0.30;0.30;;;15.70;99.90;;;;;;5134525;28;20050;-74
2023/07/02 00:19:54;;;;;;;0.40;0.40;;;15.70;99.90;;;;;;5134540;28;20109;-75
2023/07/02 00:22:20;;;;;;;0.40;0.40;;;15.70;99.90;;;;;;5134464;28;20308;-74
2023/07/02 00:24:46;;;;;;;0.40;0.40;;;15.60;99.90;;;;;;5134367;28;20046;-75
2023/07/02 00:27:12;;;;;;;0.40;0.40;;;15.60;99.90;;;;;;5134243;28;20035;-75
2023/07/02 00:29:37;;;;;;;0.53;0.53;;;15.60;99.90;;;;;;5134475;28;20039;-75
2023/07/02 00:32:04;;;;;;;0.40;0.40;;;15.60;99.90;;;;;;5134440;28;20034;-75
2023/07/02 00:34:29;;;;;;;0.40;0.40;;;15.60;99.90;;;;;;5134221;28;20372;-74
2023/07/02 00:36:55;;;;;;;0.40;0.40;;;15.50;99.90;;;;;;5134335;28;20047;-75
2023/07/02 00:39:20;;;;;;;0.40;0.40;;;15.50;99.90;;;;;;5134172;27;20047;-75
2023/07/02 00:41:46;;;;;;;0.40;0.40;;;15.50;99.90;;;;;;5137478;27;20086;-74
2023/07/02 00:44:13;;;;;;;0.40;0.40;;;15.40;99.90;;;;;;5138222;27;20126;-74
2023/07/02 00:46:39;;;;;;;0.40;0.40;;;15.50;99.90;;;;;;5137931;27;20054;-75
2023/07/02 00:49:05;;;;;;;0.40;0.40;;;15.40;99.90;;;;;;5138480;27;20031;-74
2023/07/02 00:51:31;;;;;;;0.40;0.40;;;15.50;99.90;;;;;;5138151;27;20039;-74
2023/07/02 00:53:58;;;;;;;0.40;0.40;;;15.40;99.90;;;;;;5138090;27;20265;-74
2023/07/02 00:56:26;;;;;;;0.40;0.40;;;15.50;99.90;;;;;;5119946;27;20062;-75
2023/07/02 00:58:53;;;;;;;0.40;0.40;;;15.40;99.90;;;;;;5137986;27;20036;-75
2023/07/02 01:01:25;;;;;;;0.35;0.35;;;15.40;99.90;;;;;;5137869;27;20051;-74
2023/07/02 01:04:00;;;;;;;0.50;0.50;;;15.30;99.90;;;;;;5137332;27;20466;-75
2023/07/02 01:06:36;;;;;;;0.30;0.30;;;15.30;99.90;;;;;;5138072;27;20035;-74
2023/07/02 01:09:04;;;;;;;0.40;0.40;;;15.30;99.90;;;;;;5137728;27;20039;-74
2023/07/02 01:11:34;;;;;;;0.40;0.40;;;15.20;99.90;;;;;;5137666;27;20042;-74
2023/07/02 01:14:04;;;;;;;0.40;0.40;;;15.20;99.90;;;;;;5137669;27;20126;-75
2023/07/02 01:16:32;;;;;;;0.40;0.40;;;15.20;99.90;;;;;;5137631;27;20078;-74
2023/07/02 01:19:03;;;;;;;0.40;0.40;;;15.20;99.90;;;;;;5137531;27;20420;-75
2023/07/02 01:21:29;;;;;;;0.30;0.30;;;15.20;99.90;;;;;;5137607;27;20046;-74
2023/07/02 01:23:55;;;;;;;0.65;0.60;;;15.20;99.90;;;;;;5137825;27;20061;-73
2023/07/02 01:26:20;;;;;;;0.40;0.40;;;15.30;99.90;;;;;;5137905;27;20471;-74
2023/07/02 01:28:46;;;;;;;0.50;0.40;;;15.20;99.90;;;;;;5137283;27;20118;-74
2023/07/02 01:31:12;;;;;;;0.40;0.40;;;15.10;99.90;;;;;;5137317;27;20038;-74
2023/07/02 01:33:37;;;;;;;0.40;0.40;;;15.00;99.90;;;;;;5137398;27;20035;-74
2023/07/02 01:36:03;;;;;;;0.40;0.40;;;15.10;99.90;;;;;;5137283;27;20083;-74
2023/07/02 01:38:29;;;;;;;0.43;0.43;;;15.10;99.90;;;;;;5136709;27;20035;-75
2023/07/02 01:40:55;;;;;;;0.40;0.40;;;15.00;99.90;;;;;;5137145;27;20035;-75
2023/07/02 01:43:20;;;;;;;0.40;0.40;;;15.00;99.90;;;;;;5137495;27;20039;-74
2023/07/02 01:45:46;;;;;;;0.40;0.40;;;14.90;99.90;;;;;;5137308;27;20100;-74
2023/07/02 01:48:12;;;;;;;0.40;0.40;;;14.90;99.90;;;;;;5137176;27;20031;-74
2023/07/02 01:50:37;;;;;;;0.40;0.40;;;14.80;99.90;;;;;;5137014;27;20039;-75
2023/07/02 01:53:03;;;;;;;0.40;0.40;;;14.70;99.90;;;;;;5136644;27;20378;-75
2023/07/02 01:55:28;;;;;;;0.40;0.40;;;14.70;99.90;;;;;;5136880;27;20050;-76
2023/07/02 01:57:54;;;;;;;0.60;0.60;;;14.70;99.90;;;;;;5136827;27;20079;-74
2023/07/02 02:00:20;;;;;;;0.40;0.40;;;14.60;99.90;;;;;;5136794;27;20066;-75
2023/07/02 02:02:45;;;;;;;0.30;0.30;;;14.60;99.90;;;;;;5136644;27;20088;-74
2023/07/02 02:05:11;;;;;;;0.40;0.40;;;14.50;99.90;;;;;;5136792;27;20086;-74
2023/07/02 02:07:36;;;;;;;0.40;0.40;;;14.50;99.90;;;;;;5136477;27;20039;-74
2023/07/02 02:10:04;;;;;;;0.40;0.40;;;14.50;99.90;;;;;;5136352;27;20054;-74
2023/07/02 02:12:30;;;;;;;0.40;0.40;;;14.40;99.90;;;;;;5136464;27;20039;-74
2023/07/02 02:14:55;;;;;;;0.40;0.40;;;14.40;99.90;;;;;;5136830;27;20074;-75
2023/07/02 02:17:23;;;;;;;0.40;0.40;;;14.30;99.90;;;;;;5136559;27;20078;-74
2023/07/02 02:19:49;;;;;;;0.50;0.50;;;14.30;99.90;;;;;;5136408;27;20054;-75
2023/07/02 02:22:14;;;;;;;0.40;0.40;;;14.20;99.90;;;;;;5136311;27;20039;-75
2023/07/02 02:24:40;;;;;;;0.50;0.50;;;14.20;99.90;;;;;;5136474;27;20031;-75
2023/07/02 02:27:06;;;;;;;0.40;0.40;;;14.20;99.90;;;;;;5136245;27;20039;-74
2023/07/02 02:29:31;;;;;;;0.50;0.50;;;14.10;99.90;;;;;;5136163;27;20126;-74
2023/07/02 02:31:57;;;;;;;0.40;0.40;;;14.10;99.90;;;;;;5136137;27;20075;-73
2023/07/02 02:34:23;;;;;;;0.40;0.40;;;14.00;99.90;;;;;;5136181;27;20367;-75
2023/07/02 02:36:49;;;;;;;0.40;0.40;;;14.00;99.90;;;;;;5136029;27;20538;-74
2023/07/02 02:39:14;;;;;;;0.40;0.40;;;13.90;99.90;;;;;;5136598;27;20039;-75
2023/07/02 02:41:40;;;;;;;0.40;0.40;;;13.90;99.90;;;;;;5135980;27;20455;-74
2023/07/02 02:44:06;;;;;;;0.40;0.40;;;13.80;99.90;;;;;;5135866;27;20039;-73
2023/07/02 02:46:31;;;;;;;0.50;0.50;;;13.80;99.90;;;;;;5117911;27;20066;-74
2023/07/02 02:48:57;;;;;;;0.93;0.93;;;13.70;99.90;;;;;;5135851;27;20103;-74
2023/07/02 02:51:23;;;;;;;0.40;0.40;;;13.70;99.90;;;;;;5135743;27;20455;-74
2023/07/02 02:53:48;;;;;;;0.40;0.40;;;13.70;99.90;;;;;;5135765;27;20054;-74
2023/07/02 02:56:14;;;;;;;0.40;0.40;;;13.60;99.90;;;;;;5136230;27;20035;-74
2023/07/02 02:58:40;;;;;;;0.40;0.40;;;13.50;99.90;;;;;;5135851;27;20031;-74
2023/07/02 03:01:10;;;;;;;0.40;0.40;;;13.50;99.90;;;;;;5135644;27;20039;-74
2023/07/02 03:03:45;;;;;;;0.50;0.50;;;13.50;99.90;;;;;;5134713;27;20072;-75
2023/07/02 03:06:16;;;;;;;0.40;0.40;;;13.40;99.90;;;;;;5135510;27;20055;-74
2023/07/02 03:08:42;;;;;;;0.40;0.40;;;13.40;99.90;;;;;;5135462;27;20378;-74
2023/07/02 03:11:08;;;;;;;0.40;0.40;;;13.30;99.90;;;;;;5135424;27;20031;-74
2023/07/02 03:13:33;;;;;;;0.40;0.40;;;13.40;99.90;;;;;;5135598;27;20367;-74
2023/07/02 03:15:59;;;;;;;0.50;0.50;;;13.30;99.90;;;;;;5117004;27;20035;-75
2023/07/02 03:18:25;;;;;;;0.40;0.40;;;13.30;99.90;;;;;;5135281;27;20035;-74
2023/07/02 03:20:51;;;;;;;0.50;0.50;;;13.30;99.90;;;;;;5135229;27;20035;-75
2023/07/02 03:23:16;;;;;;;7.23;0.90;;;13.30;99.90;;;;;;5135282;27;20046;-74
2023/07/02 03:25:42;;;;;;;0.40;0.40;;;13.20;99.90;;;;;;5135059;27;20039;-74
2023/07/02 03:28:07;;;;;;;0.50;0.50;;;13.20;99.90;;;;;;5135382;27;20071;-75
2023/07/02 03:30:33;;;;;;;0.60;0.60;;;13.10;99.90;;;;;;5117177;27;20031;-75
2023/07/02 03:32:59;;;;;;;0.60;0.60;;;13.10;99.90;;;;;;5135369;27;20087;-75
2023/07/02 03:35:24;;;;;;;0.40;0.40;;;13.10;99.90;;;;;;5135156;27;20035;-74
2023/07/02 03:37:50;;;;;;;0.50;0.50;;;13.10;99.90;;;;;;5116768;27;20466;-74
2023/07/02 03:40:16;;;;;;;0.60;0.60;;;13.10;99.90;;;;;;5134971;27;20047;-74
2023/07/02 03:42:43;;;;;;;0.50;0.50;;;13.10;99.90;;;;;;5134991;27;20088;-74
2023/07/02 03:45:09;;;;;;;0.65;0.57;;;13.10;99.90;;;;;;5134786;27;20503;-75
2023/07/02 03:47:34;;;;;;;0.40;0.40;;;13.10;99.90;;;;;;5134678;27;20038;-75
2023/07/02 03:50:00;;;;;;;0.40;0.40;;;13.10;99.90;;;;;;5116623;28;20097;-74
2023/07/02 03:52:25;;;;;;;0.43;0.43;;;13.20;99.90;;;;;;5134812;27;20039;-75
2023/07/02 03:54:51;;;;;;;0.43;0.43;;;13.20;99.90;;;;;;5134791;27;20362;-75
2023/07/02 03:57:17;;;;;;;0.50;0.50;;;13.20;99.90;;;;;;5134492;27;20078;-74
2023/07/02 03:59:42;;;;;;;0.45;0.45;;;13.20;99.90;;;;;;5134841;27;20043;-74
2023/07/02 04:02:08;;;;;;;1.95;1.52;;;13.20;99.90;;;;;;5134796;28;20047;-74
2023/07/02 04:04:33;;;;;;;0.50;0.50;;;13.30;99.90;;;;;;5134721;28;20039;-75
2023/07/02 04:06:59;;;;;;;0.40;0.40;;;13.30;99.90;;;;;;5116252;28;20348;-74
2023/07/02 04:09:25;;;;;;;1.17;1.13;;;13.30;99.90;;;;;;5134564;28;20039;-74
2023/07/02 04:11:50;;;;;;;0.40;0.40;;;13.30;99.90;;;;;;5134614;28;20035;-75
2023/07/02 04:14:16;;;;;;;0.40;0.40;;;13.20;99.90;;;;;;5134598;27;20031;-75
2023/07/02 04:16:44;;;;;;;0.40;0.40;;;13.20;99.90;;;;;;5137879;27;20043;-74
2023/07/02 04:19:10;;;;;;;0.50;0.50;;;13.30;99.90;;;;;;5138699;27;20047;-75
2023/07/02 04:21:36;;;;;;;0.50;0.50;;;13.30;99.90;;;;;;5138738;27;20103;-74
2023/07/02 04:24:01;;;;;;;0.77;0.77;;;13.20;99.90;;;;;;5138734;27;20054;-75
2023/07/02 04:26:27;;;;;;;0.70;0.70;;;13.30;99.90;;;;;;5138638;27;20046;-74
2023/07/02 04:28:54;;;;;;;0.50;0.50;;;13.30;99.90;;;;;;5138499;27;20118;-74
2023/07/02 04:31:21;;;;;;;0.50;0.50;;;13.30;99.90;;;;;;5138485;27;20050;-74
2023/07/02 04:33:46;;;;;;;0.97;0.97;;;13.40;99.90;;;;;;5138523;27;20043;-75
2023/07/02 04:36:12;;;;;;;0.47;0.47;;;13.40;99.90;;;;;;5138366;27;20482;-73
2023/07/02 04:38:39;;;;;;;0.40;0.40;;;13.40;99.90;;;;;;5138411;27;20374;-74
2023/07/02 04:41:05;;;;;;;;;;;13.50;99.90;;;;;;5138958;27;20474;-75
2023/07/02 04:43:33;;;;;;;0.40;0.40;;;13.50;99.90;;;;;;5138291;27;19954;-74
2023/07/02 04:45:59;;;;;;;0.40;0.40;;;13.50;99.90;;;;;;5138013;27;20062;-75
2023/07/02 04:48:25;;;;;;;0.40;0.40;;;13.60;99.90;;;;;;5138093;27;20483;-75
2023/07/02 04:50:51;;;;;;;0.40;0.40;;;13.60;99.90;;;;;;5137928;27;20398;-74
2023/07/02 04:53:16;;;;;;;2.47;1.90;;;13.70;99.90;;;;;;5138127;27;20046;-75
2023/07/02 04:55:43;;;;;;;2.75;2.55;;;13.80;99.90;;;;;;5137987;27;20127;-75
2023/07/02 04:58:09;;;;;;;0.40;0.40;;;13.80;99.90;;;;;;5138406;27;20047;-75
2023/07/02 05:00:34;;;;;;;0.40;0.40;;;13.90;99.90;;;;;;5137859;27;20096;-75
2023/07/02 05:03:00;;;;;;;0.40;0.40;;;13.90;99.90;;;;;;5137805;27;20031;-74
2023/07/02 05:05:26;;;;;;;0.40;0.40;;;14.00;99.90;;;;;;5119519;27;20070;-76
2023/07/02 05:07:51;;;;;;;0.77;0.77;;;14.00;99.90;;;;;;5119864;27;20039;-74
2023/07/02 05:10:17;;;;;;;1.00;1.00;;;14.00;99.90;;;;;;5138127;27;20035;-74
2023/07/02 05:12:43;;;;;;;0.60;0.60;;;14.00;99.90;;;;;;5137990;27;20122;-74
2023/07/02 05:15:09;;;;;;;0.60;0.60;;;14.10;99.90;;;;;;5137698;27;20035;-75
2023/07/02 05:17:36;;;;;;;0.30;0.30;;;14.10;99.90;;;;;;5137620;27;20039;-75
2023/07/02 05:20:06;;;;;;;0.57;0.57;;;14.20;99.90;;;;;;5137573;27;20091;-74
2023/07/02 05:22:31;;;;;;;0.50;0.50;;;14.20;99.90;;;;;;5138025;27;20050;-75
2023/07/02 05:24:57;;;;;;;0.70;0.70;;;14.30;99.90;;;;;;5137972;27;20118;-74
2023/07/02 05:27:22;;;;;;;0.70;0.70;;;14.40;99.90;;;;;;5136812;27;20459;-75
2023/07/02 05:29:48;;;;;;;0.40;0.40;;;14.50;99.90;;;;;;5137204;27;20078;-74
2023/07/02 05:32:14;;;;;;;0.40;0.40;;;14.80;99.90;;;;;;5137287;27;20039;-75
2023/07/02 05:34:40;;;;;;;0.55;0.55;;;15.10;99.90;;;;;;5137191;27;20460;-75
2023/07/02 05:37:05;;;;;;;2.00;1.10;;;15.30;99.90;;;;;;5137742;27;20122;-74
2023/07/02 05:39:33;;;;;;;0.30;0.30;;;15.60;99.90;;;;;;5137252;27;20114;-74
2023/07/02 05:41:58;;;;;;;0.40;0.40;;;16.00;99.90;;;;;;5136931;27;20035;-75
2023/07/02 05:44:24;;;;;;;0.43;0.43;;;16.20;99.90;;;;;;5136657;27;20038;-73
2023/07/02 05:46:50;;;;;;;0.40;0.40;;;16.50;99.90;;;;;;5136963;27;20038;-74
2023/07/02 05:49:15;;;;;;;0.70;0.70;;;16.80;99.90;;;;;;5136798;27;20042;-75
2023/07/02 05:51:41;;;;;;;0.50;0.50;;;17.00;99.90;;;;;;5137079;27;20118;-75
2023/07/02 05:54:09;;;;;;;0.40;0.40;;;17.20;99.90;;;;;;5137051;27;20078;-75
2023/07/02 05:56:35;;;;;;;0.50;0.50;;;17.30;99.90;;;;;;5137185;27;20042;-75
2023/07/02 05:59:00;;;;;;;0.40;0.40;;;17.40;99.90;;;;;;5119022;27;20051;-75
2023/07/02 06:01:26;;;;;;;0.40;0.40;;;17.60;99.90;;;;;;5136671;27;20042;-75
2023/07/02 06:03:51;;;;;;;14.37;3.30;;;17.60;99.90;;;;;;5136405;27;20043;-76
2023/07/02 06:06:17;;;;;;;0.40;0.40;;;17.70;99.90;;;;;;5137168;27;20050;-75
2023/07/02 06:08:43;;;;;;;0.60;0.60;;;17.90;99.90;;;;;;5136459;27;20082;-75
2023/07/02 06:11:10;;;;;;;0.60;0.60;;;18.00;99.90;;;;;;5136501;27;20038;-82
2023/07/02 06:13:36;;;;;;;1.13;1.02;;;18.20;99.90;;;;;;5136404;27;20080;-78
2023/07/02 06:16:01;;;;;;;0.40;0.40;;;18.30;99.90;;;;;;5136372;27;20387;-79
2023/07/02 06:18:27;;;;;;;0.40;0.40;;;18.30;99.90;;;;;;5136315;27;20039;-79
2023/07/02 06:20:52;;;;;;;0.50;0.50;;;18.50;99.90;;;;;;5136255;27;20035;-79
2023/07/02 06:23:18;;;;;;;0.43;0.43;;;18.30;99.90;;;;;;5136356;27;20050;-80
2023/07/02 06:25:44;;;;;;;3.73;2.20;;;18.50;99.90;;;;;;5117886;27;20054;-79
2023/07/02 06:28:10;;;;;;;0.47;0.47;;;18.50;99.90;;;;;;5136146;27;20082;-72
2023/07/02 06:30:36;;;;;;;1.00;0.63;;;18.50;99.90;;;;;;5136257;27;20035;-74
2023/07/02 06:33:04;;;;;;;0.40;0.40;;;18.60;99.90;;;;;;5136093;27;20347;-73
2023/07/02 06:35:30;;;;;;;0.95;0.60;;;18.70;99.90;;;;;;5136528;27;20049;-72
2023/07/02 06:37:56;;;;;;;0.53;0.53;;;18.70;99.90;;;;;;5135041;27;20043;-73
2023/07/02 06:40:24;;;;;;;0.60;0.60;;;18.70;99.90;;;;;;5136174;27;20419;-74
2023/07/02 06:42:50;;;;;;;0.65;0.65;;;18.80;99.90;;;;;;5135964;27;20398;-74
2023/07/02 06:45:15;;;;;;;0.80;0.80;;;18.70;99.90;;;;;;5136100;27;20043;-71
2023/07/02 06:47:41;;;;;;;0.57;0.57;;;18.70;99.90;;;;;;5135713;27;20043;-73
2023/07/02 06:50:10;;;;;;;1.37;1.23;;;18.50;99.90;;;;;;5136394;27;20051;-73
2023/07/02 06:52:36;;;;;;;0.40;0.40;;;18.40;99.90;;;;;;5117606;27;20043;-71
2023/07/02 06:55:03;;;;;;;0.80;0.80;;;18.40;99.90;;;;;;5135741;27;20047;-73
2023/07/02 06:57:29;;;;;;;0.45;0.45;;;18.50;99.90;;;;;;5135633;27;20054;-73
2023/07/02 07:00:01;;;;;;;0.40;0.40;;;18.40;99.90;;;;;;5135619;27;20043;-72
2023/07/02 07:02:27;;;;;;;0.40;0.40;;;18.50;99.90;;;;;;5135495;27;20035;-71
2023/07/02 07:04:53;;;;;;;0.30;0.30;;;18.50;99.90;;;;;;5135523;27;20471;-71
2023/07/02 07:07:19;;;;;;;0.33;0.33;;;18.70;99.90;;;;;;5135398;27;20050;-71
2023/07/02 07:09:45;;;;;;;0.40;0.40;;;18.20;99.90;;;;;;5135507;27;20344;-72
2023/07/02 07:12:10;;;;;;;0.60;0.60;;;18.20;99.90;;;;;;5135719;27;20095;-73
2023/07/02 07:14:36;;;;;;;0.63;0.63;;;18.20;99.90;;;;;;5135353;27;20043;-72
2023/07/02 07:17:02;;;;;;;1.60;0.80;;;18.50;99.90;;;;;;5135258;27;20039;-72
2023/07/02 07:19:28;;;;;;;1.02;1.02;;;18.90;99.90;;;;;;5135216;27;20035;-72
2023/07/02 07:21:54;;;;;;;0.50;0.50;;;19.00;99.90;;;;;;5135632;27;20113;-73
2023/07/02 07:24:19;;;;;;;2.47;2.37;;;18.90;99.90;;;;;;5135518;27;20443;-73
2023/07/02 07:26:45;;;;;;;0.40;0.40;;;18.90;99.90;;;;;;5135043;27;20095;-71
2023/07/02 07:29:11;;;;;;;0.50;0.50;;;18.80;99.90;;;;;;5099751;27;20039;-77
2023/07/02 07:31:37;;;;;;;0.77;0.77;;;18.60;99.90;;;;;;5134948;27;20039;-72
2023/07/02 07:34:02;;;;;;;0.50;0.50;;;18.60;99.90;;;;;;5133832;27;20039;-71
2023/07/02 07:36:28;;;;;;;0.30;0.30;;;18.50;99.90;;;;;;5135050;27;20091;-71
2023/07/02 07:38:54;;;;;;;0.70;0.70;;;18.50;99.90;;;;;;5135465;27;20160;-72
2023/07/02 07:41:19;;;;;;;0.43;0.43;;;18.50;99.90;;;;;;5135051;27;20039;-72
2023/07/02 07:43:45;;;;;;;0.60;0.60;;;18.60;99.90;;;;;;5135056;27;20131;-72
2023/07/02 07:46:11;;;;;;;0.47;0.47;;;18.60;99.90;;;;;;5134944;27;20467;-72
2023/07/02 07:48:36;;;;;;;0.40;0.40;;;18.60;99.90;;;;;;5134706;27;20035;-72
2023/07/02 07:51:02;;;;;;;0.30;0.30;;;18.60;99.90;;;;;;5134602;27;20374;-72
2023/07/02 07:53:28;;;;;;;0.40;0.40;;;18.40;99.90;;;;;;5134834;27;20034;-73
2023/07/02 07:55:54;;;;;;;0.30;0.30;;;18.50;99.90;;;;;;5134768;27;20034;-73
2023/07/02 07:58:19;;;;;;;0.50;0.50;;;18.50;99.90;;;;;;5134812;27;20034;-74
2023/07/02 08:00:45;;;;;;;0.47;0.47;;;18.40;99.90;;;;;;5134771;27;20038;-71
2023/07/02 08:03:10;;;;;;;0.67;0.50;;;18.30;99.90;;;;;;5134354;27;20126;-71
2023/07/02 08:05:36;;;;;;;1.17;1.07;;;18.30;99.90;;;;;;5135470;28;20466;-72
2023/07/02 08:08:02;;;;;;;0.40;0.40;;;18.30;99.90;;;;;;5134583;28;20479;-72
2023/07/02 08:10:27;;;;;;;0.30;0.30;;;18.60;99.90;;;;;;5134601;28;20035;-72
2023/07/02 08:12:53;;;;;;;0.40;0.40;;;18.90;99.90;;;;;;5134586;28;20064;-72
2023/07/02 08:15:19;;;;;;;0.40;0.40;;;19.20;99.90;;;;;;5135175;28;20481;-71
2023/07/02 08:17:44;;;;;;;0.50;0.50;;;19.50;99.90;;;;;;5134649;28;20039;-72
2023/07/02 08:20:11;;;;;;;0.30;0.30;;;19.80;99.90;;;;;;5134719;28;20039;-73
2023/07/02 08:22:40;;;;;;;0.30;0.30;;;19.80;99.90;;;;;;5134958;28;20043;-72
2023/07/02 08:25:07;;;;;;;0.45;0.45;;;19.80;99.90;;;;;;5134627;28;20110;-73
2023/07/02 08:27:32;;;;;;;0.95;0.95;;;19.70;99.90;;;;;;5134720;28;20374;-72
2023/07/02 08:29:58;;;;;;;0.40;0.40;;;19.50;99.90;;;;;;5134505;28;20043;-72
2023/07/02 08:32:24;;;;;;;0.50;0.50;;;19.30;99.90;;;;;;5134012;28;20085;-72
2023/07/02 08:34:50;;;;;;;0.40;0.40;;;19.30;99.90;;;;;;5134384;28;20043;-73
2023/07/02 08:37:17;;;;;;;0.90;0.60;;;19.30;99.90;;;;;;5134701;28;20043;-72
2023/07/02 08:39:42;;;;;;;0.40;0.40;;;19.60;99.90;;;;;;5134343;28;20130;-73
2023/07/02 08:42:08;;;;;;;0.33;0.33;;;19.80;99.90;;;;;;5134488;28;20490;-73
2023/07/02 08:44:35;;;;;;;0.40;0.40;;;19.70;99.90;;;;;;5134270;28;20472;-72
2023/07/02 08:47:01;;;;;;;;;;;19.40;99.90;;;;;;5134553;28;20035;-73
2023/07/02 08:49:27;;;;;;;0.40;0.40;;;19.30;99.90;;;;;;5134563;28;19915;-73
2023/07/02 08:51:53;;;;;;;0.30;0.30;;;19.30;99.90;;;;;;5134120;28;20038;-72
2023/07/02 08:54:19;;;;;;;0.40;0.40;;;19.20;99.90;;;;;;5133964;28;20217;-72
2023/07/02 08:56:46;;;;;;;0.40;0.40;;;19.50;99.90;;;;;;5134106;28;20100;-72
2023/07/02 08:59:11;;;;;;;0.40;0.40;;;19.60;99.90;;;;;;5134085;28;20304;-72
2023/07/02 09:01:48;;;;;;;0.40;0.40;;;19.90;99.90;;;;;;5135246;27;20074;-72
2023/07/02 09:04:24;;;;;;;0.40;0.40;;;20.10;99.90;;;;;;5137619;27;20055;-72
2023/07/02 09:07:03;;;;;;;0.73;0.73;;;20.10;99.90;;;;;;5137982;27;20277;-72
2023/07/02 09:09:29;;;;;;;2.00;0.50;;;20.10;99.90;;;;;;5137767;27;20053;-73
2023/07/02 09:11:55;;;;;;;0.50;0.50;;;19.90;99.90;;;;;;5137709;27;20117;-72
2023/07/02 09:14:28;;;;;;;0.40;0.40;;;19.70;99.90;;;;;;5138225;27;20122;-73
2023/07/02 09:17:10;;;;;;;2.42;1.10;;;19.60;99.90;;;;;;5119759;27;20077;-72
2023/07/02 09:19:47;;;;;;;0.30;0.30;;;19.50;99.90;;;;;;5137708;27;20375;-72
2023/07/02 09:22:15;;;;;;;0.40;0.40;;;19.50;99.90;;;;;;5137752;27;20512;-72
2023/07/02 09:24:41;;;;;;;0.50;0.50;;;19.30;99.90;;;;;;5137386;27;20043;-73
2023/07/02 09:27:06;;;;;;;0.40;0.40;;;19.40;99.90;;;;;;5137491;27;20380;-73
2023/07/02 09:29:33;;;;;;;0.40;0.40;;;19.40;99.90;;;;;;5137449;27;20034;-73
2023/07/02 09:32:04;;;;;;;0.40;0.40;;;19.40;99.90;;;;;;5137365;27;20391;-73
2023/07/02 09:34:34;;;;;;;0.40;0.40;;;19.60;99.90;;;;;;5137386;27;20356;-73
2023/07/02 09:37:07;;;;;;;0.40;0.40;;;19.80;99.90;;;;;;5138146;27;20098;-74
2023/07/02 09:39:36;;;;;;;0.40;0.40;;;19.90;99.90;;;;;;5137378;27;20032;-71
2023/07/02 09:42:06;;;;;;;0.40;0.40;;;19.80;99.90;;;;;;5137154;27;20039;-72
2023/07/02 09:44:33;;;;;;;0.40;0.40;;;19.60;99.90;;;;;;5137171;27;20042;-72
2023/07/02 09:47:05;;;;;;;0.30;0.30;;;19.20;99.90;;;;;;5118822;27;20394;-73
2023/07/02 09:49:36;;;;;;;0.40;0.40;;;19.00;99.90;;;;;;5137066;27;20122;-73
2023/07/02 09:52:13;;;;;;;0.60;0.60;;;19.00;99.90;;;;;;5137302;27;20046;-73
2023/07/02 09:54:39;;;;;;;0.38;0.38;;;19.10;99.90;;;;;;5137761;27;20076;-71
2023/07/02 09:57:08;;;;;;;0.40;0.40;;;19.30;99.90;;;;;;5118820;27;20039;-70
2023/07/02 09:59:34;;;;;;;0.40;0.40;;;19.30;99.90;;;;;;5136904;27;20031;-71
2023/07/02 10:02:00;;;;;;;0.40;0.40;;;19.60;99.90;;;;;;5136822;27;20031;-73
2023/07/02 10:04:39;;;;;;;0.40;0.40;;;19.90;99.90;;;;;;5136464;27;20106;-72
2023/07/02 10:07:04;;;;;;;0.30;0.30;;;20.20;99.90;;;;;;5136706;27;20130;-72
2023/07/02 10:09:38;;;;;;;0.40;0.40;;;20.40;99.90;;;;;;5136869;27;20523;-72
2023/07/02 10:12:23;;;;;;;0.30;0.30;;;20.60;99.90;;;;;;5136538;27;20092;-72
2023/07/02 10:14:56;;;;;;;0.40;0.40;;;20.50;99.90;;;;;;5136526;27;20047;-72
2023/07/02 10:17:33;;;;;;;0.40;0.40;;;20.40;99.90;;;;;;5136735;27;20118;-72
2023/07/02 10:20:05;;;;;;;0.40;0.40;;;20.20;99.90;;;;;;5136538;27;20121;-72
2023/07/02 10:22:45;;;;;;;0.30;0.30;;;20.10;99.90;;;;;;5136467;27;20042;-74
2023/07/02 10:25:11;;;;;;;0.50;0.50;;;20.10;99.90;;;;;;5136351;27;20058;-71
2023/07/02 10:27:39;;;;;;;0.57;0.57;;;20.20;99.90;;;;;;5136327;27;20035;-72
2023/07/02 10:30:06;;;;;;;0.82;0.82;;;20.20;99.90;;;;;;5136069;27;20031;-72
2023/07/02 10:32:33;;;;;;;0.60;0.60;;;20.30;99.90;;;;;;5136213;27;20036;-72
2023/07/02 10:35:02;;;;;;;0.60;0.60;;;20.20;99.90;;;;;;5135847;27;20387;-72
2023/07/02 10:37:36;;;;;;;2.05;0.88;;;20.10;99.90;;;;;;5136071;27;20348;-72
2023/07/02 10:40:05;;;;;;;1.25;1.15;;;20.00;99.90;;;;;;5136124;27;20039;-72
2023/07/02 10:42:32;;;;;;;0.30;0.30;;;19.70;99.90;;;;;;5135868;27;20039;-71
2023/07/02 10:44:58;;;;;;;0.30;0.30;;;19.40;99.90;;;;;;5135822;27;20506;-70
2023/07/02 10:47:24;;;;;;;0.50;0.50;;;19.00;99.90;;;;;;5135930;27;20036;-72
2023/07/02 10:49:50;;;;;;;0.40;0.40;;;18.70;99.90;;;;;;5135710;27;20038;-72
2023/07/02 10:52:15;;;;;;;2.03;1.20;;;18.60;99.90;;;;;;5135736;27;20079;-71
2023/07/02 10:54:46;;;;;;;0.30;0.30;;;18.60;99.90;;;;;;5135428;27;20382;-72
2023/07/02 10:57:21;;;;;;;0.40;0.40;;;18.60;99.90;;;;;;5135976;27;20074;-70
2023/07/02 10:59:48;;;;;;;0.50;0.50;;;18.70;99.90;;;;;;5135965;27;20046;-71
2023/07/02 11:02:15;;;;;;;0.57;0.57;;;18.70;99.90;;;;;;5134767;27;20409;-70
2023/07/02 11:04:41;;;;;;;0.40;0.40;;;18.80;99.90;;;;;;5116963;27;20047;-71
2023/07/02 11:07:06;;;;;;;0.40;0.40;;;18.90;99.90;;;;;;5135425;27;20078;-70
2023/07/02 11:09:33;;;;;;;0.75;0.75;;;18.90;99.90;;;;;;5135478;27;20039;-71
2023/07/02 11:12:00;;;;;;;0.40;0.40;;;18.90;99.90;;;;;;5135957;27;20096;-70
2023/07/02 11:14:33;;;;;;;4.70;0.88;;;18.90;99.90;;;;;;5135702;27;20076;-70
2023/07/02 11:17:05;;;;;;;0.30;0.30;;;19.10;99.90;;;;;;5135547;27;20074;-70
2023/07/02 11:19:34;;;;;;;0.30;0.30;;;19.10;99.90;;;;;;5135260;27;20046;-70
2023/07/02 11:22:02;;;;;;;0.40;0.40;;;19.20;99.90;;;;;;5116896;27;20031;-70
2023/07/02 11:24:32;;;;;;;0.40;0.40;;;19.40;99.90;;;;;;5134813;27;20475;-70
2023/07/02 11:27:00;;;;;;;0.30;0.30;;;19.60;99.90;;;;;;5135162;27;20513;-70
2023/07/02 11:29:26;;;;;;;0.40;0.40;;;19.80;99.90;;;;;;5116901;27;20122;-70
2023/07/02 11:31:52;;;;;;;0.30;0.30;;;19.70;99.90;;;;;;5135071;27;20474;-70
2023/07/02 11:34:21;;;;;;;0.40;0.40;;;19.70;99.90;;;;;;5135052;27;20039;-71
2023/07/02 11:36:48;;;;;;;0.30;0.30;;;19.60;99.90;;;;;;5135467;27;20042;-70
2023/07/02 11:39:15;;;;;;;0.30;0.30;;;19.60;99.90;;;;;;5135069;27;20043;-70
2023/07/02 11:41:44;;;;;;;0.40;0.40;;;19.70;99.90;;;;;;5134988;27;20039;-71
2023/07/02 11:44:09;;;;;;;0.40;0.40;;;19.60;99.90;;;;;;5134819;27;20046;-71
2023/07/02 11:46:35;;;;;;;0.40;0.40;;;19.70;99.90;;;;;;5134921;27;20027;-70
2023/07/02 11:49:02;;;;;;;0.83;0.83;;;19.60;99.90;;;;;;5135534;27;20118;-71
2023/07/02 11:51:28;;;;;;;0.40;0.40;;;19.50;99.90;;;;;;5135386;27;20139;-70
2023/07/02 11:53:54;;;;;;;0.70;0.70;;;19.50;99.90;;;;;;5134829;27;20117;-71
2023/07/02 11:56:19;;;;;;;0.40;0.40;;;19.30;99.90;;;;;;5116451;27;20038;-71
2023/07/02 11:58:45;;;;;;;0.57;0.57;;;19.30;99.90;;;;;;5134817;27;20053;-71
2023/07/02 12:01:11;;;;;;;0.30;0.30;;;19.40;99.90;;;;;;5134720;27;20045;-71
2023/07/02 12:03:36;;;;;;;0.40;0.40;;;19.50;99.90;;;;;;5115936;27;20130;-70
2023/07/02 12:06:02;;;;;;;0.30;0.30;;;19.60;99.90;;;;;;5135232;28;20462;-71
2023/07/02 12:08:28;;;;;;;0.40;0.40;;;19.70;99.90;;;;;;5134456;28;20031;-71
2023/07/02 12:10:53;;;;;;;0.50;0.50;;;19.90;99.90;;;;;;5134460;28;20039;-71
2023/07/02 12:13:20;;;;;;;0.40;0.40;;;19.90;99.90;;;;;;5134673;28;20405;-71
2023/07/02 12:15:47;;;;;;;0.47;0.47;;;19.80;99.90;;;;;;5134586;28;20062;-70
2023/07/02 12:18:12;;;;;;;;;;;19.70;99.90;;;;;;5134781;28;20031;-71
2023/07/02 12:20:39;;;;;;;0.35;0.35;;;19.60;99.90;;;;;;5134575;28;19919;-70
2023/07/02 12:23:06;;;;;;;0.30;0.30;;;19.40;99.90;;;;;;5134573;28;20038;-71
2023/07/02 12:25:31;;;;;;;0.30;0.30;;;19.40;99.90;;;;;;5134344;28;20042;-70
2023/07/02 12:27:57;;;;;;;0.30;0.30;;;19.30;99.90;;;;;;5134351;28;20031;-71
2023/07/02 12:30:23;;;;;;;0.40;0.40;;;19.40;99.90;;;;;;5134399;28;20391;-71
2023/07/02 12:32:48;;;;;;;0.30;0.30;;;19.50;99.90;;;;;;5134376;28;20132;-71
2023/07/02 12:35:14;;;;;;;0.40;0.40;;;19.70;99.90;;;;;;5134391;27;20348;-72
2023/07/02 12:37:49;;;;;;;0.30;0.30;;;19.80;99.90;;;;;;5137567;27;20050;-70
2023/07/02 12:40:15;;;;;;;0.30;0.30;;;19.80;99.90;;;;;;5138760;27;20043;-71
2023/07/02 12:42:42;;;;;;;0.30;0.30;;;19.80;99.90;;;;;;5138195;27;20042;-70
2023/07/02 12:45:09;;;;;;;0.30;0.30;;;20.20;99.90;;;;;;5138200;27;20482;-70